Marlboro, New York
Current Conditions -  °F | °C
As of 9:53 AM on Tuesday 21 Oct 2014 (Local Time) from KPOU Reporting Station
Moderate Rain Moderate Rain  
Wind Chill: 51°   Ceiling: 4700
Heat Index: 51°   Visibility: 2.5mi
Dew Point: 48°   Wind: 3mph
Humidity: 89%   Direction: 320°NW
Pressure: 29.92"   Gusts: NA
Location:  41.61°N, 73.97°W
Report Text: KPOU 211353Z AUTO 32003KT 2 1/2SM RA BR BKN047 OVC060 11/09 A2992 RMK AO2 RAB28 SLP130 P0005 T01060089 TSNO
Loading
Personal Weather Stations






























Interactive Weather Map New forecast layout! Learn more

10-Day Weather Forecast

Advertisements
Track Severe Weather on mobile